createdAt,value
2022-08-25T00:02:08.983Z,99092.66
2022-08-25T00:04:37.510Z,99091.53
2022-08-25T00:07:06.588Z,99090.69
2022-08-25T00:09:35.993Z,99086.38
2022-08-25T00:12:05.245Z,99091.31
2022-08-25T00:14:37.036Z,99097.84
2022-08-25T00:17:06.280Z,99095.06
2022-08-25T00:19:37.992Z,99095.06
2022-08-25T00:22:08.049Z,99088.00
2022-08-25T00:24:35.609Z,99084.19
2022-08-25T00:27:04.030Z,99090.59
2022-08-25T00:29:33.084Z,99089.78
2022-08-25T00:32:01.340Z,99085.03
2022-08-25T00:34:34.782Z,99090.59
2022-08-25T00:37:07.259Z,99085.34
2022-08-25T00:39:35.482Z,99090.91
2022-08-25T00:42:04.365Z,99092.38
2022-08-25T00:44:38.319Z,99073.50
2022-08-25T00:47:07.397Z,99087.13
2022-08-25T00:49:45.257Z,99084.97
2022-08-25T00:52:22.792Z,99078.59
2022-08-25T00:54:53.142Z,99083.00
2022-08-25T00:57:34.963Z,99077.75
2022-08-25T01:00:11.157Z,99077.28
2022-08-25T01:02:39.842Z,99083.97
2022-08-25T01:05:07.874Z,99076.56
2022-08-25T01:07:35.588Z,99074.59
2022-08-25T01:10:03.587Z,99065.56
2022-08-25T01:12:31.124Z,99063.91
2022-08-25T01:14:59.386Z,99067.22
2022-08-25T01:17:28.309Z,99071.44
2022-08-25T01:19:55.962Z,99073.59
2022-08-25T01:22:26.806Z,99073.91
2022-08-25T01:25:18.762Z,99070.31
2022-08-25T01:27:46.184Z,99067.34
2022-08-25T01:30:13.536Z,99071.25
2022-08-25T01:32:41.290Z,99070.56
2022-08-25T01:35:09.144Z,99077.16
2022-08-25T01:37:36.533Z,99076.44
2022-08-25T01:40:06.277Z,99072.00
2022-08-25T01:43:07.732Z,99082.84
2022-08-25T01:45:36.671Z,99081.19
2022-08-25T01:48:06.999Z,99079.34
2022-08-25T01:50:34.931Z,99077.38
2022-08-25T01:53:33.493Z,99064.63
2022-08-25T01:56:11.564Z,99073.56
2022-08-25T01:58:44.746Z,99070.28
2022-08-25T02:01:32.361Z,99073.88
2022-08-25T02:03:59.918Z,99072.75
2022-08-25T02:06:34.213Z,99075.34
2022-08-25T02:09:10.216Z,99078.13
2022-08-25T02:11:41.128Z,99071.03
2022-08-25T02:14:09.890Z,99076.59
2022-08-25T02:16:39.642Z,99070.97
2022-08-25T02:19:10.579Z,99070.47
2022-08-25T02:21:38.309Z,99072.72
2022-08-25T02:26:34.179Z,99066.97
2022-08-25T02:29:01.481Z,99069.16
2022-08-25T02:31:29.339Z,99073.53
2022-08-25T02:33:57.547Z,99061.59
2022-08-25T02:36:24.973Z,99054.41
2022-08-25T02:38:52.888Z,99062.13
2022-08-25T02:41:31.412Z,99068.31
2022-08-25T02:44:01.030Z,99063.59
2022-08-25T02:46:29.000Z,99062.56
2022-08-25T02:48:56.559Z,99054.84
2022-08-25T02:51:26.206Z,99057.31
2022-08-25T02:53:53.541Z,99055.34
2022-08-25T02:56:21.295Z,99057.81
2022-08-25T02:58:48.815Z,99062.03
2022-08-25T03:01:17.331Z,99054.84
2022-08-25T03:03:47.812Z,99062.34
2022-08-25T03:06:19.452Z,99053.50
2022-08-25T03:08:47.208Z,99057.94
2022-08-25T03:11:14.638Z,99059.06
2022-08-25T03:13:42.104Z,99058.56
2022-08-25T03:16:11.096Z,99059.72
2022-08-25T03:18:42.244Z,99058.38
2022-08-25T03:21:11.693Z,99060.94
2022-08-25T03:23:40.701Z,99057.03
2022-08-25T03:26:27.341Z,99062.59
2022-08-25T03:28:57.656Z,99059.09
2022-08-25T03:31:28.001Z,99064.38
2022-08-25T03:33:56.222Z,99061.88
2022-08-25T03:36:24.572Z,99066.63
2022-08-25T03:39:00.488Z,99061.88
2022-08-25T03:41:32.583Z,99064.16
2022-08-25T03:44:02.215Z,99071.34
2022-08-25T03:46:38.837Z,99070.03
2022-08-25T03:49:10.436Z,99061.50
2022-08-25T03:51:50.155Z,99073.94
2022-08-25T03:54:21.651Z,99065.09
2022-08-25T03:56:49.048Z,99056.34
2022-08-25T03:59:16.808Z,99057.19
2022-08-25T04:01:49.227Z,99069.66
2022-08-25T04:04:18.790Z,99068.28
2022-08-25T04:06:47.206Z,99068.28
2022-08-25T04:09:14.455Z,99058.84
2022-08-25T04:11:42.653Z,99052.25
2022-08-25T04:14:12.995Z,99063.91
2022-08-25T04:16:43.560Z,99060.09
2022-08-25T04:19:11.452Z,99065.31
2022-08-25T04:21:40.774Z,99061.22
2022-08-25T04:24:11.705Z,99054.00
2022-08-25T04:26:44.475Z,99047.97
2022-08-25T04:29:14.550Z,99062.34
2022-08-25T04:31:46.924Z,99048.47
2022-08-25T04:34:29.633Z,99051.88
2022-08-25T04:37:01.589Z,99055.47
2022-08-25T04:39:29.517Z,99057.72
2022-08-25T04:41:57.501Z,99057.22
2022-08-25T04:44:25.536Z,99062.44
2022-08-25T04:46:52.997Z,99066.06
2022-08-25T04:49:20.252Z,99064.09
2022-08-25T04:51:48.024Z,99055.47
2022-08-25T04:54:21.612Z,99048.47
2022-08-25T04:56:54.157Z,99048.97
2022-08-25T04:59:23.942Z,99051.44
2022-08-25T05:01:58.870Z,99050.31
2022-08-25T05:04:28.410Z,99057.72
2022-08-25T05:06:57.261Z,99048.53
2022-08-25T05:09:25.654Z,99048.53
2022-08-25T05:11:53.924Z,99050.09
2022-08-25T05:14:26.274Z,99046.69
2022-08-25T05:16:55.517Z,99046.56
2022-08-25T05:19:24.415Z,99049.19
2022-08-25T05:21:52.720Z,99047.75
2022-08-25T05:24:21.659Z,99048.44
2022-08-25T05:26:49.026Z,99058.22
2022-08-25T05:29:17.138Z,99048.59
2022-08-25T05:31:50.016Z,99053.50
2022-08-25T05:34:19.588Z,99048.63
2022-08-25T05:36:48.253Z,99049.81
2022-08-25T05:39:15.697Z,99047.56
2022-08-25T05:41:43.109Z,99043.31
2022-08-25T05:44:10.509Z,99042.88
2022-08-25T05:46:37.961Z,99054.84
2022-08-25T05:49:05.289Z,99055.53
2022-08-25T05:51:32.535Z,99043.16
2022-08-25T05:53:59.986Z,99041.72
2022-08-25T05:56:27.285Z,99042.25
2022-08-25T05:58:54.755Z,99045.78
2022-08-25T06:01:45.553Z,99044.69
2022-08-25T06:04:15.896Z,99040.75
2022-08-25T06:06:43.773Z,99043.75
2022-08-25T06:09:11.600Z,99043.44
2022-08-25T06:11:40.759Z,99043.47
2022-08-25T06:14:10.155Z,99040.38
2022-08-25T06:16:39.106Z,99038.09
2022-08-25T06:19:08.767Z,99035.50
2022-08-25T06:21:39.179Z,99042.06
2022-08-25T06:24:09.231Z,99048.97
2022-08-25T06:26:39.431Z,99042.22
2022-08-25T06:29:06.703Z,99044.53
2022-08-25T06:31:34.027Z,99046.47
2022-08-25T06:34:01.397Z,99051.72
2022-08-25T06:36:28.675Z,99042.03
2022-08-25T06:38:55.927Z,99048.44
2022-08-25T06:41:23.240Z,99053.50
2022-08-25T06:43:55.481Z,99044.97
2022-08-25T06:46:35.739Z,99039.22
2022-08-25T06:49:04.364Z,99040.16
2022-08-25T06:51:31.673Z,99040.13
2022-08-25T06:53:59.069Z,99049.25
2022-08-25T06:56:26.618Z,99042.63
2022-08-25T06:58:53.988Z,99049.31
2022-08-25T07:01:27.104Z,99039.91
2022-08-25T07:04:00.277Z,99048.00
2022-08-25T07:06:31.815Z,99049.22
2022-08-25T07:09:00.086Z,99045.84
2022-08-25T07:11:27.690Z,99042.78
2022-08-25T07:13:55.156Z,99031.91
2022-08-25T07:16:22.679Z,99045.75
2022-08-25T07:18:56.514Z,99046.44
2022-08-25T07:21:33.608Z,99044.28
2022-08-25T07:24:07.266Z,99047.59
2022-08-25T07:26:38.133Z,99044.94
2022-08-25T07:29:33.323Z,99037.66
2022-08-25T07:32:02.586Z,99044.09
2022-08-25T07:34:51.871Z,99041.41
2022-08-25T07:37:48.026Z,99040.41
2022-08-25T07:40:22.540Z,99040.19
2022-08-25T07:42:52.259Z,99043.94
2022-08-25T07:45:21.648Z,99054.06
2022-08-25T07:47:51.679Z,99045.66
2022-08-25T07:50:20.001Z,99035.94
2022-08-25T07:52:52.221Z,99026.34
2022-08-25T07:55:26.180Z,99032.53
2022-08-25T07:57:57.180Z,99038.00
2022-08-25T08:00:28.015Z,99039.78
2022-08-25T08:02:56.611Z,99040.91
2022-08-25T08:05:25.704Z,99021.88
2022-08-25T08:07:54.828Z,99028.75
2022-08-25T08:13:16.524Z,99033.22
2022-08-25T08:15:45.910Z,99031.75
2022-08-25T08:18:13.394Z,99033.41
2022-08-25T08:20:46.666Z,99037.19
2022-08-25T08:23:14.661Z,99033.47
2022-08-25T08:25:42.013Z,99035.44
2022-08-25T08:28:10.893Z,99038.66
2022-08-25T08:30:38.564Z,99045.75
2022-08-25T08:33:12.335Z,99036.19
2022-08-25T08:35:41.763Z,99038.91
2022-08-25T08:38:16.134Z,99031.75
2022-08-25T08:41:40.179Z,99041.34
2022-08-25T08:44:46.611Z,99041.72
2022-08-25T08:47:52.830Z,99039.03
2022-08-25T08:50:35.213Z,99037.25
2022-08-25T08:53:35.820Z,99030.94
2022-08-25T08:56:11.790Z,99034.34
2022-08-25T08:58:45.581Z,99028.41
2022-08-25T09:01:28.158Z,99033.19
2022-08-25T09:04:24.373Z,99027.31
2022-08-25T09:06:52.134Z,99027.44
2022-08-25T09:09:36.081Z,99031.41
2022-08-25T09:12:25.111Z,99033.50
2022-08-25T09:15:23.662Z,99030.69
2022-08-25T09:18:14.517Z,99039.22
2022-08-25T09:21:10.278Z,99030.81
2022-08-25T09:24:17.663Z,99020.78
2022-08-25T09:27:10.871Z,99017.16
2022-08-25T09:30:05.609Z,99019.00
2022-08-25T09:32:48.960Z,99014.78
2022-08-25T09:35:26.329Z,99005.53
2022-08-25T09:37:57.376Z,99011.75
2022-08-25T09:40:27.034Z,99005.78
2022-08-25T09:42:58.611Z,99004.38
2022-08-25T09:45:47.545Z,99006.84
2022-08-25T09:48:26.794Z,98994.81
2022-08-25T09:51:16.611Z,98994.56
2022-08-25T09:53:56.989Z,98979.00
2022-08-25T09:56:29.753Z,98983.91
2022-08-25T09:59:17.615Z,98988.38
2022-08-25T10:01:58.408Z,98974.00
2022-08-25T10:04:32.474Z,98971.63
2022-08-25T10:07:01.653Z,98973.28
2022-08-25T10:09:38.855Z,98977.34
2022-08-25T10:12:27.594Z,98967.41
2022-08-25T10:14:55.502Z,98967.41
2022-08-25T10:17:34.695Z,98972.66
2022-08-25T10:20:11.021Z,98968.34
2022-08-25T10:22:44.337Z,98965.16
2022-08-25T10:25:22.604Z,98963.16
2022-08-25T10:28:24.492Z,98965.53
2022-08-25T10:31:34.950Z,98961.44
2022-08-25T10:34:38.426Z,98957.69
2022-08-25T10:37:54.545Z,98955.53
2022-08-25T10:40:52.500Z,98947.91
2022-08-25T10:43:36.278Z,98954.69
2022-08-25T10:46:43.199Z,98950.47
2022-08-25T10:49:20.706Z,98945.31
2022-08-25T10:52:02.480Z,98936.44
2022-08-25T10:54:43.205Z,98939.16
2022-08-25T10:57:41.129Z,98935.63
2022-08-25T11:00:22.623Z,98933.16
2022-08-25T11:03:30.058Z,98934.09
2022-08-25T11:06:18.816Z,98930.22
2022-08-25T11:08:55.264Z,98929.41
2022-08-25T11:11:39.341Z,98924.16
2022-08-25T11:17:24.229Z,98918.91
2022-08-25T11:19:59.801Z,98914.91
2022-08-25T11:22:41.229Z,98908.59
2022-08-25T11:25:37.855Z,98914.38
2022-08-25T11:28:39.243Z,98916.75
2022-08-25T11:31:10.357Z,98913.47
2022-08-25T11:33:39.460Z,98909.84
2022-08-25T11:36:31.369Z,98907.41
2022-08-25T11:39:34.447Z,98903.78
2022-08-25T11:42:36.682Z,98899.81
2022-08-25T11:45:31.617Z,98896.19
2022-08-25T11:48:11.086Z,98888.94
2022-08-25T11:51:00.743Z,98889.75
2022-08-25T11:53:42.312Z,98884.97
2022-08-25T11:56:34.750Z,98877.00
2022-08-25T11:59:03.180Z,98873.84
2022-08-25T12:01:45.981Z,98874.56
2022-08-25T12:04:44.030Z,98869.75
2022-08-25T12:07:17.396Z,98873.38
2022-08-25T12:09:51.766Z,98880.19
2022-08-25T12:12:31.758Z,98878.16
2022-08-25T12:15:42.115Z,98878.16
2022-08-25T12:18:22.897Z,98884.16
2022-08-25T12:20:58.681Z,98881.69
2022-08-25T12:23:45.339Z,98882.59
2022-08-25T12:26:31.840Z,98877.81
2022-08-25T12:29:21.476Z,98873.84
2022-08-25T12:32:07.105Z,98868.56
2022-08-25T12:34:39.556Z,98870.22
2022-08-25T12:37:17.305Z,98870.22
2022-08-25T12:40:01.400Z,98862.97
2022-08-25T12:42:36.935Z,98869.75
2022-08-25T12:45:44.990Z,98858.06
2022-08-25T12:48:27.897Z,98860.16
2022-08-25T12:51:18.194Z,98856.53
2022-08-25T12:53:58.594Z,98859.34
2022-08-25T12:56:42.756Z,98852.56
2022-08-25T12:59:47.032Z,98851.03
2022-08-25T13:02:51.926Z,98846.69
2022-08-25T13:05:55.168Z,98846.78
2022-08-25T13:09:20.569Z,98842.81
2022-08-25T13:12:18.219Z,98844.78
2022-08-25T13:14:57.630Z,98838.00
2022-08-25T13:17:33.979Z,98827.47
2022-08-25T13:20:25.301Z,98823.97
2022-08-25T13:22:58.107Z,98826.78
2022-08-25T13:25:32.156Z,98830.94
2022-08-25T13:28:04.969Z,98822.97
2022-08-25T13:30:37.020Z,98825.78
2022-08-25T13:33:22.452Z,98819.69
2022-08-25T13:36:16.126Z,98812.38
2022-08-25T13:38:46.869Z,98821.69
2022-08-25T13:41:29.301Z,98814.91
2022-08-25T13:44:00.849Z,98815.25
2022-08-25T13:46:29.166Z,98812.09
2022-08-25T13:49:08.705Z,98811.75
2022-08-25T13:51:38.619Z,98816.63
2022-08-25T13:54:09.669Z,98815.38
2022-08-25T13:56:42.138Z,98818.63
2022-08-25T13:59:43.731Z,98808.13
2022-08-25T14:03:12.761Z,98807.38
2022-08-25T14:05:45.692Z,98794.91
2022-08-25T14:08:41.304Z,98792.44
2022-08-25T14:11:28.299Z,98796.06
2022-08-25T14:14:08.785Z,98806.22
2022-08-25T14:17:22.160Z,98790.94
2022-08-25T14:19:56.212Z,98787.31
2022-08-25T14:22:23.664Z,98782.41
2022-08-25T14:24:54.228Z,98792.44
2022-08-25T14:27:21.835Z,98784.84
2022-08-25T14:29:52.671Z,98780.41
2022-08-25T14:32:20.613Z,98780.06
2022-08-25T14:34:47.977Z,98773.63
2022-08-25T14:37:20.328Z,98771.63
2022-08-25T14:39:54.584Z,98776.44
2022-08-25T14:42:22.798Z,98775.59
2022-08-25T14:44:52.691Z,98773.16
2022-08-25T14:47:20.672Z,98762.31
2022-08-25T14:49:49.719Z,98763.94
2022-08-25T14:52:22.816Z,98764.72
2022-08-25T14:54:50.660Z,98761.94
2022-08-25T14:57:18.430Z,98768.75
2022-08-25T14:59:46.280Z,98757.44
2022-08-25T15:02:20.018Z,98758.22
2022-08-25T15:04:56.047Z,98771.09
2022-08-25T15:07:42.746Z,98770.25
2022-08-25T15:10:13.602Z,98769.81
2022-08-25T15:12:48.192Z,98759.41
2022-08-25T15:15:21.870Z,98763.41
2022-08-25T15:17:50.290Z,98764.56
2022-08-25T15:20:17.975Z,98771.00
2022-08-25T15:22:45.625Z,98770.66
2022-08-25T15:25:12.890Z,98771.81
2022-08-25T15:27:40.212Z,98766.19
2022-08-25T15:30:09.133Z,98763.41
2022-08-25T15:32:40.487Z,98764.22
2022-08-25T15:35:08.568Z,98759.41
2022-08-25T15:37:36.012Z,98758.59
2022-08-25T15:40:06.963Z,98753.81
2022-08-25T15:42:36.765Z,98752.16
2022-08-25T15:45:04.638Z,98761.84
2022-08-25T15:47:32.719Z,98752.16
2022-08-25T15:50:14.596Z,98751.25
2022-08-25T15:52:46.330Z,98755.72
2022-08-25T15:55:15.488Z,98762.94
2022-08-25T15:57:43.453Z,98764.47
2022-08-25T16:00:13.686Z,98761.31
2022-08-25T16:02:45.623Z,98753.25
2022-08-25T16:05:16.334Z,98756.41
2022-08-25T16:07:46.168Z,98748.38
2022-08-25T16:10:19.323Z,98748.00
2022-08-25T16:12:47.569Z,98750.78
2022-08-25T16:15:16.087Z,98752.91
2022-08-25T16:17:45.926Z,98753.25
2022-08-25T16:20:17.899Z,98752.09
2022-08-25T16:22:45.476Z,98748.38
2022-08-25T16:25:13.235Z,98754.81
2022-08-25T16:27:40.509Z,98757.97
2022-08-25T16:30:14.983Z,98750.28
2022-08-25T16:32:46.765Z,98753.44
2022-08-25T16:35:14.597Z,98752.19
2022-08-25T16:37:41.950Z,98753.69
2022-08-25T16:40:14.707Z,98750.38
2022-08-25T16:42:42.522Z,98757.84
2022-08-25T16:45:10.415Z,98757.28
2022-08-25T16:47:38.207Z,98756.13
2022-08-25T16:50:11.271Z,98757.19
2022-08-25T16:52:58.276Z,98757.09
2022-08-25T16:55:39.272Z,98759.00
2022-08-25T16:58:08.309Z,98754.00
2022-08-25T17:00:40.277Z,98753.81
2022-08-25T17:03:08.087Z,98756.13
2022-08-25T17:05:42.992Z,98757.59
2022-08-25T17:08:29.323Z,98756.69
2022-08-25T17:11:14.331Z,98748.88
2022-08-25T17:13:47.678Z,98756.34
2022-08-25T17:16:18.362Z,98761.16
2022-08-25T17:18:48.127Z,98758.97
2022-08-25T17:21:24.549Z,98759.31
2022-08-25T17:23:53.248Z,98759.19
2022-08-25T17:26:28.002Z,98758.25
2022-08-25T17:28:59.291Z,98758.16
2022-08-25T17:31:27.234Z,98755.97
2022-08-25T17:33:55.565Z,98760.78
2022-08-25T17:36:25.085Z,98755.75
2022-08-25T17:38:56.772Z,98770.13
2022-08-25T17:41:24.647Z,98765.13
2022-08-25T17:43:52.037Z,98760.56
2022-08-25T17:46:19.370Z,98760.94
2022-08-25T17:48:46.762Z,98759.66
2022-08-25T17:51:16.356Z,98762.72
2022-08-25T17:53:44.434Z,98766.56
2022-08-25T17:56:17.117Z,98766.09
2022-08-25T17:58:47.240Z,98771.13
2022-08-25T18:01:30.860Z,98769.22
2022-08-25T18:03:59.318Z,98764.69
2022-08-25T18:06:32.073Z,98764.22
2022-08-25T18:09:01.592Z,98773.69
2022-08-25T18:11:30.206Z,98765.41
2022-08-25T18:13:58.031Z,98772.97
2022-08-25T18:16:27.491Z,98779.75
2022-08-25T18:18:56.095Z,98773.69
2022-08-25T18:21:25.386Z,98773.56
2022-08-25T18:23:57.796Z,98774.28
2022-08-25T18:26:26.359Z,98772.97
2022-08-25T18:28:53.790Z,98782.09
2022-08-25T18:31:21.145Z,98775.66
2022-08-25T18:33:50.912Z,98782.31
2022-08-25T18:36:21.009Z,98796.31
2022-08-25T18:39:18.305Z,98804.56
2022-08-25T18:41:46.438Z,98809.34
2022-08-25T18:44:15.646Z,98814.00
2022-08-25T18:46:43.555Z,98808.31
2022-08-25T18:49:15.581Z,98804.19
2022-08-25T18:51:45.009Z,98808.19
2022-08-25T18:54:22.834Z,98817.25
2022-08-25T18:56:53.910Z,98815.97
2022-08-25T18:59:23.551Z,98817.13
2022-08-25T19:01:53.370Z,98821.44
2022-08-25T19:04:20.980Z,98814.88
2022-08-25T19:06:55.828Z,98808.78
2022-08-25T19:09:23.080Z,98821.50
2022-08-25T19:11:50.680Z,98819.75
2022-08-25T19:14:22.112Z,98811.56
2022-08-25T19:16:51.783Z,98815.50
2022-08-25T19:19:20.304Z,98824.28
2022-08-25T19:21:48.225Z,98819.38
2022-08-25T19:24:16.966Z,98813.16
2022-08-25T19:26:45.496Z,98811.19
2022-08-25T19:29:17.840Z,98821.44
2022-08-25T19:31:48.207Z,98808.94
2022-08-25T19:34:21.741Z,98813.25
2022-08-25T19:36:50.902Z,98808.34
2022-08-25T19:39:18.713Z,98814.78
2022-08-25T19:41:47.553Z,98812.19
2022-08-25T19:44:15.957Z,98819.41
2022-08-25T19:46:45.423Z,98818.09
2022-08-25T19:49:22.538Z,98819.63
2022-08-25T19:51:52.943Z,98816.22
2022-08-25T19:54:29.306Z,98814.81
2022-08-25T19:56:58.487Z,98813.50
2022-08-25T19:59:40.845Z,98816.81
2022-08-25T20:02:19.748Z,98827.63
2022-08-25T20:04:56.262Z,98823.06
2022-08-25T20:07:28.354Z,98818.66
2022-08-25T20:09:56.789Z,98824.69
2022-08-25T20:12:27.182Z,98825.06
2022-08-25T20:14:55.641Z,98816.19
2022-08-25T20:17:26.226Z,98824.56
2022-08-25T20:19:59.627Z,98812.31
2022-08-25T20:22:33.814Z,98823.28
2022-08-25T20:25:13.791Z,98813.47
2022-08-25T20:27:47.264Z,98817.53
2022-08-25T20:30:34.618Z,98815.44
2022-08-25T20:33:02.691Z,98813.00
2022-08-25T20:35:30.119Z,98824.00
2022-08-25T20:37:58.934Z,98816.69
2022-08-25T20:40:30.195Z,98813.88
2022-08-25T20:43:03.092Z,98815.50
2022-08-25T20:45:30.590Z,98812.56
2022-08-25T20:47:57.877Z,98808.13
2022-08-25T20:50:25.561Z,98817.22
2022-08-25T20:52:56.692Z,98822.47
2022-08-25T20:55:24.953Z,98824.31
2022-08-25T20:57:53.876Z,98814.97
2022-08-25T21:00:23.528Z,98816.56
2022-08-25T21:02:52.821Z,98810.53
2022-08-25T21:05:20.282Z,98818.41
2022-08-25T21:07:47.581Z,98816.81
2022-08-25T21:10:16.342Z,98826.31
2022-08-25T21:12:45.235Z,98823.88
2022-08-25T21:15:18.046Z,98816.63
2022-08-25T21:17:51.224Z,98819.28
2022-08-25T21:20:18.719Z,98816.84
2022-08-25T21:22:46.148Z,98813.44
2022-08-25T21:25:14.458Z,98813.94
2022-08-25T21:27:41.755Z,98812.63
2022-08-25T21:30:12.224Z,98813.75
2022-08-25T21:32:39.518Z,98819.19
2022-08-25T21:35:21.533Z,98814.31
2022-08-25T21:37:53.430Z,98808.59
2022-08-25T21:40:23.061Z,98817.78
2022-08-25T21:42:51.729Z,98810.56
2022-08-25T21:45:20.878Z,98822.00
2022-08-25T21:47:49.189Z,98818.75
2022-08-25T21:50:16.442Z,98818.25
2022-08-25T21:52:43.673Z,98819.41
2022-08-25T21:55:16.062Z,98812.22
2022-08-25T21:57:44.225Z,98814.50
2022-08-25T22:00:13.591Z,98812.41
2022-08-25T22:02:44.078Z,98805.53
2022-08-25T22:05:11.842Z,98806.53
2022-08-25T22:07:44.079Z,98806.84
2022-08-25T22:10:16.508Z,98808.00
2022-08-25T22:12:46.627Z,98814.41
2022-08-25T22:15:16.523Z,98800.31
2022-08-25T22:17:48.061Z,98806.56
2022-08-25T22:20:17.494Z,98812.97
2022-08-25T22:22:44.789Z,98808.53
2022-08-25T22:25:13.138Z,98806.06
2022-08-25T22:27:40.431Z,98804.44
2022-08-25T22:30:08.503Z,98800.34
2022-08-25T22:32:36.008Z,98797.88
2022-08-25T22:35:03.446Z,98799.06
2022-08-25T22:37:30.727Z,98801.03
2022-08-25T22:39:58.031Z,98799.38
2022-08-25T22:42:25.911Z,98796.94
2022-08-25T22:44:54.034Z,98788.41
2022-08-25T22:47:21.606Z,98797.28
2022-08-25T22:49:49.305Z,98790.06
2022-08-25T22:52:16.537Z,98785.97
2022-08-25T22:54:44.189Z,98787.59
2022-08-25T22:57:12.181Z,98779.44
2022-08-25T22:59:40.648Z,98792.69
2022-08-25T23:02:08.656Z,98776.66
2022-08-25T23:04:41.351Z,98772.91
2022-08-25T23:07:11.469Z,98777.78
2022-08-25T23:09:39.052Z,98766.81
2022-08-25T23:12:07.242Z,98770.44
2022-08-25T23:14:42.284Z,98778.28
2022-08-25T23:17:11.748Z,98767.00
2022-08-25T23:19:39.533Z,98769.78
2022-08-25T23:22:10.581Z,98770.13
2022-08-25T23:24:45.404Z,98776.03
2022-08-25T23:27:16.684Z,98775.22
2022-08-25T23:29:48.276Z,98775.53
2022-08-25T23:32:18.511Z,98769.16
2022-08-25T23:34:47.234Z,98770.63
2022-08-25T23:37:18.759Z,98765.41
2022-08-25T23:39:50.035Z,98758.50
2022-08-25T23:42:19.448Z,98755.06
2022-08-25T23:44:48.043Z,98768.66
2022-08-25T23:47:16.241Z,98769.00
2022-08-25T23:49:44.766Z,98758.19
2022-08-25T23:52:12.180Z,98763.25
2022-08-25T23:54:39.781Z,98757.53
2022-08-25T23:57:07.126Z,98753.94
2022-08-25T23:59:36.428Z,98755.44
